Vega Leader — H3NW — position and weather

sailwx.info

Track history (hours):
 
Tides and Currents Weather Stations Pressure Air Temp Water Temp Dewpoint Dewpoint Depression Visibility Wind Speed Wind Dir Waves Ship Positions

Vega Leader

Last reported at 2018-Jul-18 14:29 UTC. Time now 2018-Jul-18 14:42 UTC.
Position N 41°00' E 001°56'.

Length 180 m; draft 8.6 m.

Type: Cargo ship. MMSI: 355948000.

Date/timePositionNaut miles runAvg speedWind from/ knotsBaromVisibWave heightAir tempDewpointWater temp
2018-Jul-18 14:29N 41°00' E 001°56'1514.9
2018-Jul-18 13:30N 41°02' E 001°37'118 5.0
2018-Jul-17 13:38N 39°38' W 000°12'1 5.5
2018-Jul-17 13:31N 39°38' W 000°13'1 0.1
2018-Jul-17 04:32N 39°38' W 000°13'0 0.7
2018-Jul-17 04:30N 39°38' W 000°13'3 4.0
2018-Jul-17 03:47N 39°36' W 000°10'3 9.2
2018-Jul-17 03:30N 39°35' W 000°07'611.7
2018-Jul-17 03:00N 39°33' W 000°00'35 6.9
2018-Jul-16 21:51N 39°20' E 000°42'1 1.8
2018-Jul-16 21:29N 39°20' E 000°42'4 2.1
2018-Jul-16 19:31N 39°17' E 000°38'0 2.7
2018-Jul-16 19:30N 39°17' E 000°38'166 7.0
2018-Jul-15 19:36N 36°58' W 001°18'215.1
2018-Jul-15 19:28N 36°57' W 001°20'18915.3
2018-Jul-15 07:06N 36°02' W 005°05'218.0
2018-Jul-15 07:00N 36°02' W 005°07'917.9
2018-Jul-15 06:30N 36°00' W 005°18'917.5
2018-Jul-15 06:00N 35°58' W 005°28'1016.8
2018-Jul-15 05:24N 35°55' W 005°40'716.4
2018-Jul-15 05:00N 35°55' W 005°49'916.4
2018-Jul-15 04:28N 35°54' W 005°59'21313.3
2018-Jul-14 12:30N 37°42' W 009°48'1714.8
2018-Jul-14 11:22N 37°59' W 009°53'514.5
2018-Jul-14 11:00N 38°04' W 009°54'1714.6
2018-Jul-14 09:51N 38°20' W 009°59'514.9
2018-Jul-14 09:30N 38°25' W 010°01'814.7
2018-Jul-14 08:58N 38°33' W 010°03'714.6
2018-Jul-14 08:30N 38°40' W 010°05'714.8
2018-Jul-14 08:00N 38°47' W 010°05'714.6
2018-Jul-14 07:30N 38°54' W 010°05'715.0
2018-Jul-14 07:00N 39°02' W 010°05'815.3
2018-Jul-14 06:30N 39°09' W 010°05'815.5
2018-Jul-14 06:00N 39°17' W 010°06'814.4
2018-Jul-14 05:29N 39°25' W 010°06'814.6
2018-Jul-14 04:58N 39°32' W 010°06'714.4
2018-Jul-14 04:28N 39°39' W 010°06'2414.6
2018-Jul-14 02:51N 40°03' W 010°06'614.6
2018-Jul-14 02:28N 40°09' W 010°06'13014.3
2018-Jul-13 17:24N 42°08' W 008°59'614.5
2018-Jul-13 17:00N 42°11' W 008°52'611.4
2018-Jul-13 16:30N 42°14' W 008°46'1 0.3
2018-Jul-13 13:00N 42°14' W 008°45'0 0.0
2018-Jul-13 08:12N 42°14' W 008°45'0 0.0
2018-Jul-13 07:54N 42°14' W 008°45'0 0.0
2018-Jul-13 04:00N 42°14' W 008°45'0 0.0
2018-Jul-13 01:18N 42°14' W 008°45'0 0.0
2018-Jul-12 23:48N 42°14' W 008°45'0 0.0
2018-Jul-12 23:30N 42°14' W 008°45'0 0.0
2018-Jul-12 22:48N 42°14' W 008°45'0 0.0
2018-Jul-12 21:06N 42°14' W 008°45'0 0.0
2018-Jul-12 21:00N 42°14' W 008°45'0 0.0
2018-Jul-12 20:30N 42°14' W 008°45'0 0.0
2018-Jul-12 19:48N 42°14' W 008°45'0 0.0
2018-Jul-12 19:24N 42°14' W 008°45'0 0.0
2018-Jul-12 15:42N 42°14' W 008°45'0 0.0
2018-Jul-12 15:18N 42°14' W 008°45'0 0.0
2018-Jul-12 15:00N 42°14' W 008°45'0 0.0
2018-Jul-12 14:30N 42°14' W 008°45'0 0.0
2018-Jul-12 13:42N 42°14' W 008°45'0 0.0
2018-Jul-12 11:12N 42°14' W 008°45'0 0.0
2018-Jul-12 10:45N 42°14' W 008°45'0 0.9
2018-Jul-12 10:29N 42°14' W 008°45'3 5.2
2018-Jul-12 10:00N 42°14' W 008°48'3 5.4
2018-Jul-12 09:30N 42°13' W 008°52'1 1.2
2018-Jul-12 08:59N 42°13' W 008°52'0 0.0
2018-Jul-12 08:29N 42°13' W 008°52'0 0.0
2018-Jul-12 07:59N 42°13' W 008°52'0 0.0
2018-Jul-12 07:29N 42°13' W 008°52'0 0.0
2018-Jul-12 06:59N 42°13' W 008°52'0 0.0
2018-Jul-12 06:29N 42°13' W 008°52'0 0.0
2018-Jul-12 05:50N 42°13' W 008°52'0 0.0
2018-Jul-12 05:29N 42°13' W 008°52'0 0.0
2018-Jul-12 04:59N 42°13' W 008°52'0 0.0
2018-Jul-12 04:26N 42°13' W 008°52'0 0.0
2018-Jul-12 03:59N 42°13' W 008°52'0 0.0
2018-Jul-12 03:29N 42°13' W 008°52'0 0.0
2018-Jul-12 02:59N 42°13' W 008°52'0 0.0
2018-Jul-12 02:29N 42°13' W 008°52'0 0.1
2018-Jul-12 01:59N 42°13' W 008°52'0 0.0
2018-Jul-12 01:26N 42°13' W 008°52'0 0.0
2018-Jul-12 00:59N 42°13' W 008°52'0 0.0
2018-Jul-12 00:29N 42°13' W 008°52'0 0.1
2018-Jul-11 23:56N 42°13' W 008°52'0 0.0
2018-Jul-11 23:26N 42°13' W 008°52'0 0.0
2018-Jul-11 22:59N 42°13' W 008°52'0 0.0
2018-Jul-11 22:29N 42°13' W 008°52'0 0.1
2018-Jul-11 21:59N 42°13' W 008°52'0 0.0
2018-Jul-11 21:29N 42°13' W 008°52'0 0.0
2018-Jul-11 20:59N 42°13' W 008°52'0 0.0
2018-Jul-11 20:29N 42°13' W 008°52'0 0.1
2018-Jul-11 19:53N 42°13' W 008°52'0 0.1
2018-Jul-11 19:29N 42°13' W 008°52'0 0.0
2018-Jul-11 18:59N 42°13' W 008°52'0 0.0
2018-Jul-11 18:29N 42°13' W 008°52'0 0.0
2018-Jul-11 17:59N 42°13' W 008°52'0 0.0
2018-Jul-11 17:23N 42°13' W 008°52'0 0.0
2018-Jul-11 16:59N 42°13' W 008°52'0 0.5
2018-Jul-11 16:30N 42°13' W 008°52'1 3.0
2018-Jul-11 16:00N 42°14' W 008°53'611.3
2018-Jul-11 15:30N 42°18' W 008°59'714.6
2018-Jul-11 15:00N 42°21' W 009°08'31913.0
2018-Jul-10 14:33N 47°33' W 007°32'1514.6
2018-Jul-10 13:33N 47°46' W 007°22'2814.2
2018-Jul-10 11:33N 48°12' W 007°07'5814.7
2018-Jul-10 07:39N 49°05' W 006°33'4516.0
2018-Jul-10 04:49N 49°47' W 006°05'915.5
2018-Jul-10 04:15N 49°55' W 006°01'515.7
2018-Jul-10 03:55N 50°01' W 006°01'2014.8
2018-Jul-10 02:34N 50°21' W 006°00'114.5
2018-Jul-10 02:30N 50°21' W 005°59'714.2
2018-Jul-10 02:00N 50°26' W 005°51'714.0
2018-Jul-10 01:31N 50°30' W 005°42'713.9
2018-Jul-10 01:00N 50°34' W 005°34'714.1
2018-Jul-10 00:30N 50°39' W 005°25'714.0
2018-Jul-10 00:00N 50°43' W 005°17'714.2
2018-Jul-09 23:30N 50°48' W 005°08'714.3
2018-Jul-09 23:00N 50°53' W 004°60'714.6
2018-Jul-09 22:30N 50°57' W 004°51'714.6
2018-Jul-09 22:00N 51°02' W 004°42'815.1
2018-Jul-09 21:30N 51°07' W 004°33'815.0
2018-Jul-09 21:00N 51°12' W 004°23'815.4
2018-Jul-09 20:30N 51°16' W 004°13'3516.5
2018-Jul-09 18:24N 51°21' W 003°18'513.1
2018-Jul-09 17:59N 51°22' W 003°10'817.1
2018-Jul-09 17:30N 51°27' W 002°60'816.8
2018-Jul-09 17:01N 51°30' W 002°47'2 4.3
2018-Jul-09 16:30N 51°30' W 002°44'0 0.9
2018-Jul-09 16:00N 51°30' W 002°43'0 0.1
2018-Jul-09 15:29N 51°30' W 002°43'0 0.0
2018-Jul-09 14:59N 51°30' W 002°43'0 0.0
2018-Jul-09 14:29N 51°30' W 002°43'0 0.0
2018-Jul-09 13:59N 51°30' W 002°43'0 0.0
2018-Jul-09 13:29N 51°30' W 002°43'0 0.0
2018-Jul-09 12:59N 51°30' W 002°43'0 0.0
2018-Jul-09 12:29N 51°30' W 002°43'0 0.0
2018-Jul-09 11:59N 51°30' W 002°43'0 0.0
2018-Jul-09 11:29N 51°30' W 002°43'0 0.0
2018-Jul-09 10:59N 51°30' W 002°43'0 0.0
2018-Jul-09 10:29N 51°30' W 002°43'0 0.0
2018-Jul-09 09:59N 51°30' W 002°43'0 0.0
2018-Jul-09 09:29N 51°30' W 002°43'0 0.0
2018-Jul-09 08:59N 51°30' W 002°43'0 0.0
2018-Jul-09 08:29N 51°30' W 002°43'0 0.0
2018-Jul-09 07:59N 51°30' W 002°43'0 0.0
2018-Jul-09 07:29N 51°30' W 002°43'0 0.0
2018-Jul-09 06:59N 51°30' W 002°43'0 0.0
2018-Jul-09 06:29N 51°30' W 002°43'0 0.0
2018-Jul-09 05:59N 51°30' W 002°43'0 0.0
2018-Jul-09 05:29N 51°30' W 002°43'0 0.0
2018-Jul-09 04:59N 51°30' W 002°43'0 0.0
2018-Jul-09 04:29N 51°30' W 002°43'0 0.0
2018-Jul-09 03:59N 51°30' W 002°43'0 0.5
2018-Jul-09 03:30N 51°30' W 002°43'0 0.5
2018-Jul-09 03:00N 51°30' W 002°44'1 2.3
2018-Jul-09 02:30N 51°30' W 002°45'713.9
2018-Jul-09 02:00N 51°27' W 002°56'815.6
2018-Jul-09 01:30N 51°22' W 003°05'714.3
2018-Jul-09 01:00N 51°21' W 003°17'14 9.7
2018-Jul-08 23:36N 51°20' W 003°38'317.1
2018-Jul-08 23:25N 51°20' W 003°43'716.8
2018-Jul-08 22:59N 51°20' W 003°55'816.8
2018-Jul-08 22:30N 51°19' W 004°08'816.2
2018-Jul-08 22:00N 51°14' W 004°18'815.8
2018-Jul-08 21:30N 51°09' W 004°27'2 3.7
2018-Jul-08 21:00N 51°10' W 004°25'715.0
2018-Jul-08 20:30N 51°05' W 004°34'714.6
2018-Jul-08 20:00N 51°00' W 004°43'714.4
2018-Jul-08 19:30N 50°55' W 004°51'714.4
2018-Jul-08 19:00N 50°50' W 004°59'714.3
2018-Jul-08 18:30N 50°46' W 005°08'714.2
2018-Jul-08 18:00N 50°41' W 005°16'714.4
2018-Jul-08 17:30N 50°36' W 005°25'714.4
2018-Jul-08 17:00N 50°31' W 005°33'714.2
2018-Jul-08 16:30N 50°27' W 005°41'714.4
2018-Jul-08 16:00N 50°22' W 005°50'713.3
2018-Jul-08 15:30N 50°16' W 005°54'714.0
2018-Jul-08 15:00N 50°09' W 005°54'714.2
2018-Jul-08 14:30N 50°02' W 005°54'  
Track history (hours):
 
Tides and Currents Weather Stations Pressure Air Temp Water Temp Dewpoint Dewpoint Depression Visibility Wind Speed Wind Dir Waves Ship Positions

Vega Leader

Last reported at 2018-Jul-18 14:29 UTC. Time now 2018-Jul-18 14:42 UTC.
Position N 41°00' E 001°56'.

Length 180 m; draft 8.6 m.

Type: Cargo ship. MMSI: 355948000.

Date/timePositionNaut miles runAvg speedWind from/ knotsBaromVisibWave heightAir tempDewpointWater temp
2018-Jul-18 14:29N 41°00' E 001°56'1514.9
2018-Jul-18 13:30N 41°02' E 001°37'118 5.0
2018-Jul-17 13:38N 39°38' W 000°12'1 5.5
2018-Jul-17 13:31N 39°38' W 000°13'1 0.1
2018-Jul-17 04:32N 39°38' W 000°13'0 0.7
2018-Jul-17 04:30N 39°38' W 000°13'3 4.0
2018-Jul-17 03:47N 39°36' W 000°10'3 9.2
2018-Jul-17 03:30N 39°35' W 000°07'611.7
2018-Jul-17 03:00N 39°33' W 000°00'35 6.9
2018-Jul-16 21:51N 39°20' E 000°42'1 1.8
2018-Jul-16 21:29N 39°20' E 000°42'4 2.1
2018-Jul-16 19:31N 39°17' E 000°38'0 2.7
2018-Jul-16 19:30N 39°17' E 000°38'166 7.0
2018-Jul-15 19:36N 36°58' W 001°18'215.1
2018-Jul-15 19:28N 36°57' W 001°20'18915.3
2018-Jul-15 07:06N 36°02' W 005°05'218.0
2018-Jul-15 07:00N 36°02' W 005°07'917.9
2018-Jul-15 06:30N 36°00' W 005°18'917.5
2018-Jul-15 06:00N 35°58' W 005°28'1016.8
2018-Jul-15 05:24N 35°55' W 005°40'716.4
2018-Jul-15 05:00N 35°55' W 005°49'916.4
2018-Jul-15 04:28N 35°54' W 005°59'21313.3
2018-Jul-14 12:30N 37°42' W 009°48'1714.8
2018-Jul-14 11:22N 37°59' W 009°53'514.5
2018-Jul-14 11:00N 38°04' W 009°54'1714.6
2018-Jul-14 09:51N 38°20' W 009°59'514.9
2018-Jul-14 09:30N 38°25' W 010°01'814.7
2018-Jul-14 08:58N 38°33' W 010°03'714.6
2018-Jul-14 08:30N 38°40' W 010°05'714.8
2018-Jul-14 08:00N 38°47' W 010°05'714.6
2018-Jul-14 07:30N 38°54' W 010°05'715.0
2018-Jul-14 07:00N 39°02' W 010°05'815.3
2018-Jul-14 06:30N 39°09' W 010°05'815.5
2018-Jul-14 06:00N 39°17' W 010°06'814.4
2018-Jul-14 05:29N 39°25' W 010°06'814.6
2018-Jul-14 04:58N 39°32' W 010°06'714.4
2018-Jul-14 04:28N 39°39' W 010°06'2414.6
2018-Jul-14 02:51N 40°03' W 010°06'614.6
2018-Jul-14 02:28N 40°09' W 010°06'13014.3
2018-Jul-13 17:24N 42°08' W 008°59'614.5
2018-Jul-13 17:00N 42°11' W 008°52'611.4
2018-Jul-13 16:30N 42°14' W 008°46'1 0.3
2018-Jul-13 13:00N 42°14' W 008°45'0 0.0
2018-Jul-13 08:12N 42°14' W 008°45'0 0.0
2018-Jul-13 07:54N 42°14' W 008°45'0 0.0
2018-Jul-13 04:00N 42°14' W 008°45'0 0.0
2018-Jul-13 01:18N 42°14' W 008°45'0 0.0
2018-Jul-12 23:48N 42°14' W 008°45'0 0.0
2018-Jul-12 23:30N 42°14' W 008°45'0 0.0
2018-Jul-12 22:48N 42°14' W 008°45'0 0.0
2018-Jul-12 21:06N 42°14' W 008°45'0 0.0
2018-Jul-12 21:00N 42°14' W 008°45'0 0.0
2018-Jul-12 20:30N 42°14' W 008°45'0 0.0
2018-Jul-12 19:48N 42°14' W 008°45'0 0.0
2018-Jul-12 19:24N 42°14' W 008°45'0 0.0
2018-Jul-12 15:42N 42°14' W 008°45'0 0.0
2018-Jul-12 15:18N 42°14' W 008°45'0 0.0
2018-Jul-12 15:00N 42°14' W 008°45'0 0.0
2018-Jul-12 14:30N 42°14' W 008°45'0 0.0
2018-Jul-12 13:42N 42°14' W 008°45'0 0.0
2018-Jul-12 11:12N 42°14' W 008°45'0 0.0
2018-Jul-12 10:45N 42°14' W 008°45'0 0.9
2018-Jul-12 10:29N 42°14' W 008°45'3 5.2
2018-Jul-12 10:00N 42°14' W 008°48'3 5.4
2018-Jul-12 09:30N 42°13' W 008°52'1 1.2
2018-Jul-12 08:59N 42°13' W 008°52'0 0.0
2018-Jul-12 08:29N 42°13' W 008°52'0 0.0
2018-Jul-12 07:59N 42°13' W 008°52'0 0.0
2018-Jul-12 07:29N 42°13' W 008°52'0 0.0
2018-Jul-12 06:59N 42°13' W 008°52'0 0.0
2018-Jul-12 06:29N 42°13' W 008°52'0 0.0
2018-Jul-12 05:50N 42°13' W 008°52'0 0.0
2018-Jul-12 05:29N 42°13' W 008°52'0 0.0
2018-Jul-12 04:59N 42°13' W 008°52'0 0.0
2018-Jul-12 04:26N 42°13' W 008°52'0 0.0
2018-Jul-12 03:59N 42°13' W 008°52'0 0.0
2018-Jul-12 03:29N 42°13' W 008°52'0 0.0
2018-Jul-12 02:59N 42°13' W 008°52'0 0.0
2018-Jul-12 02:29N 42°13' W 008°52'0 0.1
2018-Jul-12 01:59N 42°13' W 008°52'0 0.0
2018-Jul-12 01:26N 42°13' W 008°52'0 0.0
2018-Jul-12 00:59N 42°13' W 008°52'0 0.0
2018-Jul-12 00:29N 42°13' W 008°52'0 0.1
2018-Jul-11 23:56N 42°13' W 008°52'0 0.0
2018-Jul-11 23:26N 42°13' W 008°52'0 0.0
2018-Jul-11 22:59N 42°13' W 008°52'0 0.0
2018-Jul-11 22:29N 42°13' W 008°52'0 0.1
2018-Jul-11 21:59N 42°13' W 008°52'0 0.0
2018-Jul-11 21:29N 42°13' W 008°52'0 0.0
2018-Jul-11 20:59N 42°13' W 008°52'0 0.0
2018-Jul-11 20:29N 42°13' W 008°52'0 0.1
2018-Jul-11 19:53N 42°13' W 008°52'0 0.1
2018-Jul-11 19:29N 42°13' W 008°52'0 0.0
2018-Jul-11 18:59N 42°13' W 008°52'0 0.0
2018-Jul-11 18:29N 42°13' W 008°52'0 0.0
2018-Jul-11 17:59N 42°13' W 008°52'0 0.0
2018-Jul-11 17:23N 42°13' W 008°52'0 0.0
2018-Jul-11 16:59N 42°13' W 008°52'0 0.5
2018-Jul-11 16:30N 42°13' W 008°52'1 3.0
2018-Jul-11 16:00N 42°14' W 008°53'611.3
2018-Jul-11 15:30N 42°18' W 008°59'714.6
2018-Jul-11 15:00N 42°21' W 009°08'31913.0
2018-Jul-10 14:33N 47°33' W 007°32'1514.6
2018-Jul-10 13:33N 47°46' W 007°22'2814.2
2018-Jul-10 11:33N 48°12' W 007°07'5814.7
2018-Jul-10 07:39N 49°05' W 006°33'4516.0
2018-Jul-10 04:49N 49°47' W 006°05'915.5
2018-Jul-10 04:15N 49°55' W 006°01'515.7
2018-Jul-10 03:55N 50°01' W 006°01'2014.8
2018-Jul-10 02:34N 50°21' W 006°00'114.5
2018-Jul-10 02:30N 50°21' W 005°59'714.2
2018-Jul-10 02:00N 50°26' W 005°51'714.0
2018-Jul-10 01:31N 50°30' W 005°42'713.9
2018-Jul-10 01:00N 50°34' W 005°34'714.1
2018-Jul-10 00:30N 50°39' W 005°25'714.0
2018-Jul-10 00:00N 50°43' W 005°17'714.2
2018-Jul-09 23:30N 50°48' W 005°08'714.3
2018-Jul-09 23:00N 50°53' W 004°60'714.6
2018-Jul-09 22:30N 50°57' W 004°51'714.6
2018-Jul-09 22:00N 51°02' W 004°42'815.1
2018-Jul-09 21:30N 51°07' W 004°33'815.0
2018-Jul-09 21:00N 51°12' W 004°23'815.4
2018-Jul-09 20:30N 51°16' W 004°13'3516.5
2018-Jul-09 18:24N 51°21' W 003°18'513.1
2018-Jul-09 17:59N 51°22' W 003°10'817.1
2018-Jul-09 17:30N 51°27' W 002°60'816.8
2018-Jul-09 17:01N 51°30' W 002°47'2 4.3
2018-Jul-09 16:30N 51°30' W 002°44'0 0.9
2018-Jul-09 16:00N 51°30' W 002°43'0 0.1
2018-Jul-09 15:29N 51°30' W 002°43'0 0.0
2018-Jul-09 14:59N 51°30' W 002°43'0 0.0
2018-Jul-09 14:29N 51°30' W 002°43'0 0.0
2018-Jul-09 13:59N 51°30' W 002°43'0 0.0
2018-Jul-09 13:29N 51°30' W 002°43'0 0.0
2018-Jul-09 12:59N 51°30' W 002°43'0 0.0
2018-Jul-09 12:29N 51°30' W 002°43'0 0.0
2018-Jul-09 11:59N 51°30' W 002°43'0 0.0
2018-Jul-09 11:29N 51°30' W 002°43'0 0.0
2018-Jul-09 10:59N 51°30' W 002°43'0 0.0
2018-Jul-09 10:29N 51°30' W 002°43'0 0.0
2018-Jul-09 09:59N 51°30' W 002°43'0 0.0
2018-Jul-09 09:29N 51°30' W 002°43'0 0.0
2018-Jul-09 08:59N 51°30' W 002°43'0 0.0
2018-Jul-09 08:29N 51°30' W 002°43'0 0.0
2018-Jul-09 07:59N 51°30' W 002°43'0 0.0
2018-Jul-09 07:29N 51°30' W 002°43'0 0.0
2018-Jul-09 06:59N 51°30' W 002°43'0 0.0
2018-Jul-09 06:29N 51°30' W 002°43'0 0.0
2018-Jul-09 05:59N 51°30' W 002°43'0 0.0
2018-Jul-09 05:29N 51°30' W 002°43'0 0.0
2018-Jul-09 04:59N 51°30' W 002°43'0 0.0
2018-Jul-09 04:29N 51°30' W 002°43'0 0.0
2018-Jul-09 03:59N 51°30' W 002°43'0 0.5
2018-Jul-09 03:30N 51°30' W 002°43'0 0.5
2018-Jul-09 03:00N 51°30' W 002°44'1 2.3
2018-Jul-09 02:30N 51°30' W 002°45'713.9
2018-Jul-09 02:00N 51°27' W 002°56'815.6
2018-Jul-09 01:30N 51°22' W 003°05'714.3
2018-Jul-09 01:00N 51°21' W 003°17'14 9.7
2018-Jul-08 23:36N 51°20' W 003°38'317.1
2018-Jul-08 23:25N 51°20' W 003°43'716.8
2018-Jul-08 22:59N 51°20' W 003°55'816.8
2018-Jul-08 22:30N 51°19' W 004°08'816.2
2018-Jul-08 22:00N 51°14' W 004°18'815.8
2018-Jul-08 21:30N 51°09' W 004°27'2 3.7
2018-Jul-08 21:00N 51°10' W 004°25'715.0
2018-Jul-08 20:30N 51°05' W 004°34'714.6
2018-Jul-08 20:00N 51°00' W 004°43'714.4
2018-Jul-08 19:30N 50°55' W 004°51'714.4
2018-Jul-08 19:00N 50°50' W 004°59'714.3
2018-Jul-08 18:30N 50°46' W 005°08'714.2
2018-Jul-08 18:00N 50°41' W 005°16'714.4
2018-Jul-08 17:30N 50°36' W 005°25'714.4
2018-Jul-08 17:00N 50°31' W 005°33'714.2
2018-Jul-08 16:30N 50°27' W 005°41'714.4
2018-Jul-08 16:00N 50°22' W 005°50'713.3
2018-Jul-08 15:30N 50°16' W 005°54'714.0
2018-Jul-08 15:00N 50°09' W 005°54'714.2
2018-Jul-08 14:30N 50°02' W 005°54'  

Dump ship's entire track history